createdAt,value
2023-01-09T00:01:16.539Z,97191.59
2023-01-09T00:03:48.658Z,97190.88
2023-01-09T00:06:19.745Z,97189.47
2023-01-09T00:08:51.166Z,97193.22
2023-01-09T00:11:23.411Z,97188.31
2023-01-09T00:13:59.447Z,97184.13
2023-01-09T00:16:32.821Z,97184.66
2023-01-09T00:19:04.991Z,97184.06
2023-01-09T00:21:37.081Z,97187.94
2023-01-09T00:24:12.290Z,97186.69
2023-01-09T00:26:44.651Z,97182.78
2023-01-09T00:29:20.988Z,97187.78
2023-01-09T00:31:54.127Z,97181.22
2023-01-09T00:34:27.981Z,97182.88
2023-01-09T00:37:00.163Z,97175.31
2023-01-09T00:39:32.887Z,97177.69
2023-01-09T00:42:05.814Z,97177.38
2023-01-09T00:44:45.683Z,97175.44
2023-01-09T00:47:22.114Z,97175.44
2023-01-09T00:49:56.610Z,97172.63
2023-01-09T00:52:29.065Z,97177.78
2023-01-09T00:55:03.652Z,97169.84
2023-01-09T00:57:36.828Z,97169.84
2023-01-09T01:00:14.795Z,97166.22
2023-01-09T01:02:47.213Z,97161.22
2023-01-09T01:05:31.808Z,97164.56
2023-01-09T01:08:03.912Z,97169.00
2023-01-09T01:10:35.725Z,97166.50
2023-01-09T01:13:08.168Z,97162.88
2023-01-09T01:15:43.321Z,97159.56
2023-01-09T01:18:18.302Z,97149.25
2023-01-09T01:20:50.292Z,97149.97
2023-01-09T01:23:22.989Z,97145.34
2023-01-09T01:25:55.503Z,97150.63
2023-01-09T01:28:28.397Z,97136.41
2023-01-09T01:31:04.062Z,97132.13
2023-01-09T01:33:37.248Z,97130.31
2023-01-09T01:36:12.139Z,97127.81
2023-01-09T01:38:45.673Z,97120.56
2023-01-09T01:41:30.072Z,97116.09
2023-01-09T01:44:04.998Z,97113.47
2023-01-09T01:46:39.955Z,97103.56
2023-01-09T01:49:21.158Z,97099.09
2023-01-09T01:51:58.117Z,97101.75
2023-01-09T01:54:34.204Z,97089.38
2023-01-09T01:57:09.681Z,97088.53
2023-01-09T01:59:46.013Z,97090.31
2023-01-09T02:02:24.095Z,97064.94
2023-01-09T02:04:59.515Z,97081.59
2023-01-09T02:07:33.662Z,97086.31
2023-01-09T02:10:06.046Z,97084.66
2023-01-09T02:12:38.874Z,97082.16
2023-01-09T02:15:15.426Z,97085.78
2023-01-09T02:18:18.279Z,97078.00
2023-01-09T02:20:59.826Z,97070.22
2023-01-09T02:23:53.921Z,97072.88
2023-01-09T02:26:48.296Z,97065.25
2023-01-09T02:29:52.840Z,97062.59
2023-01-09T02:32:39.435Z,97056.63
2023-01-09T02:35:32.316Z,97055.81
2023-01-09T02:38:12.652Z,97056.63
2023-01-09T02:40:51.665Z,97041.59
2023-01-09T02:43:24.792Z,97039.38
2023-01-09T02:45:58.135Z,97035.47
2023-01-09T02:48:33.655Z,97028.53
2023-01-09T02:51:17.088Z,97038.81
2023-01-09T02:54:22.272Z,97022.94
2023-01-09T02:57:33.071Z,97022.94
2023-01-09T03:00:15.275Z,97023.75
2023-01-09T03:02:54.768Z,97016.00
2023-01-09T03:05:34.865Z,97000.72
2023-01-09T03:08:12.242Z,97011.66
2023-01-09T03:10:50.733Z,97006.38
2023-01-09T03:13:26.570Z,97010.84
2023-01-09T03:15:59.267Z,97016.81
2023-01-09T03:18:35.649Z,97012.38
2023-01-09T03:21:12.237Z,97011.53
2023-01-09T03:23:51.871Z,97008.72
2023-01-09T03:26:24.230Z,97016.53
2023-01-09T03:28:56.530Z,97002.44
2023-01-09T03:31:27.915Z,97000.78
2023-01-09T03:33:59.347Z,97004.28
2023-01-09T03:36:33.070Z,97005.25
2023-01-09T03:39:05.565Z,97001.78
2023-01-09T03:41:36.897Z,97022.09
2023-01-09T03:44:09.347Z,97018.66
2023-01-09T03:46:42.198Z,97022.09
2023-01-09T03:49:14.166Z,97022.94
2023-01-09T03:51:47.927Z,97023.75
2023-01-09T03:54:20.480Z,97011.28
2023-01-09T03:56:52.376Z,97030.72
2023-01-09T03:59:26.007Z,97020.72
2023-01-09T04:01:57.619Z,97036.97
2023-01-09T04:04:29.945Z,97043.78
2023-01-09T04:07:04.578Z,97045.47
2023-01-09T04:09:36.612Z,97039.31
2023-01-09T04:12:09.532Z,97045.47
2023-01-09T04:14:41.240Z,97038.47
2023-01-09T04:17:12.566Z,97045.59
2023-01-09T04:19:43.699Z,97049.06
2023-01-09T04:22:17.546Z,97050.06
2023-01-09T04:24:49.608Z,97049.25
2023-01-09T04:27:21.064Z,97048.69
2023-01-09T04:29:53.248Z,97051.19
2023-01-09T04:32:24.897Z,97055.66
2023-01-09T04:34:56.969Z,97052.09
2023-01-09T04:37:34.021Z,97067.19
2023-01-09T04:40:08.918Z,97057.75
2023-01-09T04:42:41.409Z,97067.53
2023-01-09T04:45:16.324Z,97064.31
2023-01-09T04:47:49.648Z,97071.44
2023-01-09T04:50:22.274Z,97060.47
2023-01-09T04:52:57.388Z,97055.50
2023-01-09T04:55:30.822Z,97060.91
2023-01-09T04:58:02.698Z,97060.41
2023-01-09T05:00:35.548Z,97066.94
2023-01-09T05:03:08.744Z,97056.81
2023-01-09T05:05:41.388Z,97061.84
2023-01-09T05:08:15.494Z,97061.09
2023-01-09T05:10:47.692Z,97061.88
2023-01-09T05:13:20.726Z,97060.44
2023-01-09T05:15:53.083Z,97065.50
2023-01-09T05:18:25.081Z,97066.09
2023-01-09T05:20:56.953Z,97068.09
2023-01-09T05:23:32.384Z,97073.63
2023-01-09T05:26:05.006Z,97065.84
2023-01-09T05:28:36.740Z,97063.59
2023-01-09T05:31:08.353Z,97073.03
2023-01-09T05:33:42.071Z,97071.59
2023-01-09T05:36:16.621Z,97083.34
2023-01-09T05:38:53.675Z,97081.03
2023-01-09T05:41:28.247Z,97077.53
2023-01-09T05:44:01.838Z,97073.31
2023-01-09T05:46:34.416Z,97077.47
2023-01-09T05:49:06.607Z,97078.94
2023-01-09T05:51:40.393Z,97083.75
2023-01-09T05:54:17.681Z,97070.16
2023-01-09T05:56:49.464Z,97071.25
2023-01-09T05:59:24.355Z,97076.50
2023-01-09T06:01:58.086Z,97072.34
2023-01-09T06:04:30.572Z,97078.28
2023-01-09T06:07:03.572Z,97063.59
2023-01-09T06:09:40.920Z,97070.41
2023-01-09T06:12:16.824Z,97065.16
2023-01-09T06:14:52.799Z,97059.75
2023-01-09T06:17:29.830Z,97045.06
2023-01-09T06:20:00.672Z,97044.34
2023-01-09T06:22:31.325Z,97047.81
2023-01-09T06:25:04.711Z,97046.03
2023-01-09T06:27:35.336Z,97048.50
2023-01-09T06:30:05.984Z,97042.88
2023-01-09T06:32:36.628Z,97037.94
2023-01-09T06:35:07.860Z,97040.88
2023-01-09T06:37:38.449Z,97036.75
2023-01-09T06:40:13.410Z,97034.28
2023-01-09T06:42:47.024Z,97031.31
2023-01-09T06:45:17.718Z,97022.06
2023-01-09T06:47:50.262Z,97022.91
2023-01-09T06:50:21.402Z,97018.94
2023-01-09T06:52:52.038Z,97030.34
2023-01-09T06:55:26.572Z,97027.56
2023-01-09T06:57:57.528Z,97015.91
2023-01-09T07:00:28.403Z,97016.44
2023-01-09T07:02:58.941Z,97025.53
2023-01-09T07:05:29.870Z,97026.44
2023-01-09T07:08:00.516Z,97021.34
2023-01-09T07:10:33.777Z,97030.66
2023-01-09T07:13:04.293Z,97023.97
2023-01-09T07:15:34.699Z,97020.22
2023-01-09T07:18:05.383Z,97028.34
2023-01-09T07:20:35.948Z,97025.56
2023-01-09T07:23:06.681Z,97025.50
2023-01-09T07:25:39.959Z,97028.44
2023-01-09T07:28:10.591Z,97019.09
2023-01-09T07:30:41.304Z,97025.94
2023-01-09T07:33:12.001Z,97030.97
2023-01-09T07:35:42.636Z,97016.78
2023-01-09T07:38:13.102Z,97023.13
2023-01-09T07:40:46.501Z,97023.97
2023-01-09T07:43:17.096Z,97016.91
2023-01-09T07:45:49.473Z,97003.53
2023-01-09T07:48:19.989Z,96997.91
2023-01-09T07:50:51.096Z,97000.09
2023-01-09T07:53:21.859Z,97005.75
2023-01-09T07:55:55.203Z,97000.47
2023-01-09T07:58:25.733Z,96998.81
2023-01-09T08:00:56.367Z,96989.19
2023-01-09T08:03:27.377Z,96989.50
2023-01-09T08:05:57.993Z,96989.19
2023-01-09T08:08:28.537Z,96992.47
2023-01-09T08:11:01.811Z,97010.03
2023-01-09T08:13:32.344Z,97004.56
2023-01-09T08:16:03.107Z,96996.72
2023-01-09T08:18:33.623Z,96996.03
2023-01-09T08:21:04.347Z,96995.34
2023-01-09T08:23:34.922Z,96985.84
2023-01-09T08:26:08.318Z,96988.19
2023-01-09T08:28:38.838Z,97010.94
2023-01-09T08:31:09.943Z,97008.44
2023-01-09T08:33:40.701Z,97018.59
2023-01-09T08:36:12.466Z,97005.63
2023-01-09T08:38:43.059Z,96998.00
2023-01-09T08:41:28.483Z,97015.47
2023-01-09T08:44:11.302Z,96990.41
2023-01-09T08:46:54.416Z,96988.75
2023-01-09T08:49:25.008Z,96989.94
2023-01-09T08:51:56.801Z,96994.41
2023-01-09T08:54:27.311Z,96984.09
2023-01-09T08:57:00.541Z,96975.50
2023-01-09T08:59:31.294Z,96965.50
2023-01-09T09:02:01.907Z,96970.66
2023-01-09T09:04:32.637Z,96966.19
2023-01-09T09:07:03.211Z,96959.03
2023-01-09T09:09:33.793Z,96962.53
2023-01-09T09:12:07.408Z,96962.34
2023-01-09T09:14:50.168Z,96955.19
2023-01-09T09:17:20.688Z,96956.88
2023-01-09T09:19:51.360Z,96947.91
2023-01-09T09:22:22.153Z,96955.53
2023-01-09T09:24:52.791Z,96950.03
2023-01-09T09:27:26.192Z,96955.00
2023-01-09T09:29:56.660Z,96954.00
2023-01-09T09:32:27.346Z,96955.84
2023-01-09T09:34:57.893Z,96952.50
2023-01-09T09:37:28.505Z,96965.81
2023-01-09T09:40:01.428Z,96957.34
2023-01-09T09:43:03.887Z,96955.19
2023-01-09T09:45:47.103Z,96944.63
2023-01-09T09:48:32.931Z,96946.78
2023-01-09T09:51:26.069Z,96949.78
2023-01-09T09:54:02.516Z,96947.78
2023-01-09T09:56:37.697Z,96944.50
2023-01-09T09:59:18.751Z,96937.38
2023-01-09T10:01:56.206Z,96945.53
2023-01-09T10:04:29.152Z,96938.06
2023-01-09T10:07:06.393Z,96924.13
2023-01-09T10:09:48.649Z,96932.44
2023-01-09T10:12:31.877Z,96933.25
2023-01-09T10:15:10.388Z,96928.75
2023-01-09T10:17:55.057Z,96924.47
2023-01-09T10:20:47.953Z,96920.81
2023-01-09T10:23:42.239Z,96923.97
2023-01-09T10:26:19.829Z,96911.16
2023-01-09T10:29:26.485Z,96914.13
2023-01-09T10:32:08.893Z,96904.50
2023-01-09T10:34:52.867Z,96903.78
2023-01-09T10:37:26.655Z,96899.09
2023-01-09T10:40:02.436Z,96904.69
2023-01-09T10:42:38.746Z,96895.63
2023-01-09T10:45:20.692Z,96894.69
2023-01-09T10:47:53.822Z,96872.88
2023-01-09T10:50:26.611Z,96892.50
2023-01-09T10:52:59.297Z,96889.91
2023-01-09T10:55:40.008Z,96883.94
2023-01-09T10:58:15.757Z,96878.03
2023-01-09T11:00:46.788Z,96888.22
2023-01-09T11:03:22.694Z,96878.50
2023-01-09T11:05:55.645Z,96878.03
2023-01-09T11:08:31.013Z,96882.66
2023-01-09T11:11:03.515Z,96878.44
2023-01-09T11:13:36.883Z,96882.19
2023-01-09T11:16:10.911Z,96863.34
2023-01-09T11:18:52.950Z,96858.88
2023-01-09T11:21:36.322Z,96854.16
2023-01-09T11:24:32.869Z,96868.78
2023-01-09T11:27:27.284Z,96855.53
2023-01-09T11:30:20.385Z,96849.09
2023-01-09T11:32:51.508Z,96844.50
2023-01-09T11:35:33.933Z,96850.53
2023-01-09T11:38:12.316Z,96836.25
2023-01-09T11:40:51.120Z,96842.06
2023-01-09T11:43:25.836Z,96849.22
2023-01-09T11:46:01.637Z,96840.97
2023-01-09T11:48:44.208Z,96841.97
2023-01-09T11:51:25.156Z,96834.34
2023-01-09T11:54:11.266Z,96836.19
2023-01-09T11:56:42.570Z,96826.91
2023-01-09T11:59:15.705Z,96827.94
2023-01-09T12:02:08.414Z,96822.78
2023-01-09T12:04:44.472Z,96818.84
2023-01-09T12:07:38.643Z,96801.97
2023-01-09T12:10:26.485Z,96797.00
2023-01-09T12:13:06.335Z,96799.03
2023-01-09T12:15:45.669Z,96797.75
2023-01-09T12:18:35.658Z,96787.72
2023-01-09T12:21:21.072Z,96778.09
2023-01-09T12:24:06.201Z,96779.72
2023-01-09T12:26:42.510Z,96765.78
2023-01-09T12:29:27.747Z,96755.50
2023-01-09T12:32:20.179Z,96767.97
2023-01-09T12:35:00.647Z,96753.78
2023-01-09T12:37:51.716Z,96752.06
2023-01-09T12:40:41.989Z,96740.03
2023-01-09T12:43:22.113Z,96751.91
2023-01-09T12:46:07.127Z,96744.63
2023-01-09T12:48:49.814Z,96737.41
2023-01-09T12:51:40.738Z,96736.13
2023-01-09T12:54:19.118Z,96736.47
2023-01-09T12:56:57.767Z,96734.84
2023-01-09T12:59:36.083Z,96734.84
2023-01-09T13:02:19.925Z,96728.88
2023-01-09T13:04:55.629Z,96719.78
2023-01-09T13:07:29.622Z,96718.69
2023-01-09T13:10:05.610Z,96709.78
2023-01-09T13:12:42.634Z,96707.88
2023-01-09T13:15:32.737Z,96708.97
2023-01-09T13:18:08.747Z,96702.72
2023-01-09T13:20:45.194Z,96700.81
2023-01-09T13:23:23.505Z,96722.16
2023-01-09T13:25:57.929Z,96719.56
2023-01-09T13:28:37.324Z,96722.94
2023-01-09T13:31:31.105Z,96717.06
2023-01-09T13:34:04.589Z,96717.94
2023-01-09T13:36:41.696Z,96723.16
2023-01-09T13:39:23.864Z,96721.22
2023-01-09T13:42:12.618Z,96731.41
2023-01-09T13:44:46.245Z,96728.63
2023-01-09T13:47:25.462Z,96717.88
2023-01-09T13:50:24.827Z,96725.06
2023-01-09T13:52:55.560Z,96726.81
2023-01-09T13:55:31.923Z,96722.19
2023-01-09T13:58:22.908Z,96712.28
2023-01-09T14:00:58.779Z,96705.00
2023-01-09T14:03:33.446Z,96711.00
2023-01-09T14:06:19.490Z,96718.69
2023-01-09T14:08:52.549Z,96715.06
2023-01-09T14:11:29.303Z,96722.09
2023-01-09T14:14:07.216Z,96723.44
2023-01-09T14:16:41.090Z,96726.75
2023-01-09T14:19:29.500Z,96719.50
2023-01-09T14:22:01.140Z,96713.41
2023-01-09T14:24:35.456Z,96705.31
2023-01-09T14:27:05.983Z,96700.69
2023-01-09T14:29:51.534Z,96697.91
2023-01-09T14:32:45.309Z,96696.09
2023-01-09T14:35:30.051Z,96700.25
2023-01-09T14:38:26.290Z,96702.59
2023-01-09T14:41:01.912Z,96697.31
2023-01-09T14:43:43.141Z,96696.16
2023-01-09T14:46:17.966Z,96695.06
2023-01-09T14:49:18.861Z,96698.19
2023-01-09T14:51:52.584Z,96693.56
2023-01-09T14:54:30.943Z,96695.91
2023-01-09T14:57:02.738Z,96693.91
2023-01-09T14:59:33.600Z,96678.88
2023-01-09T15:02:04.255Z,96687.97
2023-01-09T15:04:41.093Z,96692.94
2023-01-09T15:07:26.182Z,96677.72
2023-01-09T15:09:56.831Z,96681.69
2023-01-09T15:12:27.914Z,96675.03
2023-01-09T15:15:01.497Z,96670.09
2023-01-09T15:17:39.632Z,96667.94
2023-01-09T15:20:22.347Z,96670.72
2023-01-09T15:22:54.836Z,96670.25
2023-01-09T15:25:38.029Z,96665.47
2023-01-09T15:28:27.874Z,96666.59
2023-01-09T15:31:09.014Z,96657.16
2023-01-09T15:33:43.405Z,96663.47
2023-01-09T15:36:20.773Z,96653.88
2023-01-09T15:38:52.209Z,96657.53
2023-01-09T15:41:40.504Z,96648.25
2023-01-09T15:44:17.654Z,96651.22
2023-01-09T15:46:50.390Z,96647.94
2023-01-09T15:49:22.140Z,96651.06
2023-01-09T15:51:56.311Z,96654.53
2023-01-09T15:54:31.796Z,96634.00
2023-01-09T15:57:16.881Z,96642.94
2023-01-09T15:59:47.650Z,96639.66
2023-01-09T16:02:31.435Z,96629.38
2023-01-09T16:05:02.109Z,96633.00
2023-01-09T16:07:36.997Z,96628.47
2023-01-09T16:10:08.431Z,96622.00
2023-01-09T16:12:39.143Z,96621.19
2023-01-09T16:15:18.734Z,96621.53
2023-01-09T16:18:10.600Z,96615.22
2023-01-09T16:20:41.557Z,96618.00
2023-01-09T16:23:25.322Z,96612.88
2023-01-09T16:26:06.453Z,96601.63
2023-01-09T16:28:40.906Z,96598.75
2023-01-09T16:31:24.035Z,96605.84
2023-01-09T16:34:01.807Z,96616.38
2023-01-09T16:36:32.459Z,96603.94
2023-01-09T16:39:08.034Z,96601.03
2023-01-09T16:41:50.540Z,96603.09
2023-01-09T16:44:20.926Z,96594.22
2023-01-09T16:46:51.503Z,96590.72
2023-01-09T16:49:24.742Z,96587.66
2023-01-09T16:51:55.664Z,96585.47
2023-01-09T16:54:29.284Z,96586.53
2023-01-09T16:57:00.408Z,96579.03
2023-01-09T16:59:31.609Z,96586.94
2023-01-09T17:02:02.697Z,96602.31
2023-01-09T17:04:33.275Z,96576.97
2023-01-09T17:07:05.064Z,96585.16
2023-01-09T17:09:39.307Z,96592.38
2023-01-09T17:12:15.666Z,96580.59
2023-01-09T17:14:46.435Z,96586.66
2023-01-09T17:17:20.739Z,96586.91
2023-01-09T17:19:52.389Z,96584.25
2023-01-09T17:22:23.710Z,96560.81
2023-01-09T17:25:10.011Z,96587.56
2023-01-09T17:27:53.568Z,96571.03
2023-01-09T17:30:24.783Z,96572.97
2023-01-09T17:32:56.201Z,96565.97
2023-01-09T17:35:27.147Z,96560.44
2023-01-09T17:37:58.241Z,96552.59
2023-01-09T17:40:35.104Z,96558.44
2023-01-09T17:43:05.876Z,96541.44
2023-01-09T17:45:36.691Z,96547.78
2023-01-09T17:48:08.050Z,96539.44
2023-01-09T17:50:39.204Z,96541.50
2023-01-09T17:53:10.025Z,96533.38
2023-01-09T17:55:44.477Z,96527.69
2023-01-09T17:58:29.333Z,96525.28
2023-01-09T18:01:01.049Z,96528.81
2023-01-09T18:03:34.761Z,96523.78
2023-01-09T18:06:06.418Z,96521.00
2023-01-09T18:08:37.193Z,96522.13
2023-01-09T18:11:12.186Z,96514.00
2023-01-09T18:13:44.087Z,96515.22
2023-01-09T18:16:16.468Z,96520.91
2023-01-09T18:18:48.697Z,96516.81
2023-01-09T18:21:22.713Z,96511.41
2023-01-09T18:23:53.889Z,96510.44
2023-01-09T18:26:27.710Z,96503.66
2023-01-09T18:29:02.225Z,96499.38
2023-01-09T18:31:33.878Z,96498.72
2023-01-09T18:34:07.071Z,96493.09
2023-01-09T18:36:38.520Z,96496.06
2023-01-09T18:39:10.190Z,96493.13
2023-01-09T18:41:43.463Z,96488.66
2023-01-09T18:44:14.478Z,96489.47
2023-01-09T18:46:47.194Z,96476.25
2023-01-09T18:49:19.221Z,96470.31
2023-01-09T18:51:50.241Z,96466.34
2023-01-09T18:54:22.297Z,96456.91
2023-01-09T18:56:55.892Z,96451.94
2023-01-09T18:59:26.644Z,96448.16
2023-01-09T19:01:58.219Z,96457.88
2023-01-09T19:04:30.654Z,96446.25
2023-01-09T19:07:01.560Z,96450.53
2023-01-09T19:09:32.270Z,96449.75
2023-01-09T19:12:05.627Z,96448.09
2023-01-09T19:14:36.099Z,96433.88
2023-01-09T19:17:06.869Z,96439.00
2023-01-09T19:19:37.768Z,96441.25
2023-01-09T19:22:08.319Z,96427.75
2023-01-09T19:24:39.460Z,96422.97
2023-01-09T19:27:12.740Z,96423.31
2023-01-09T19:29:43.392Z,96415.66
2023-01-09T19:32:14.647Z,96419.09
2023-01-09T19:34:45.294Z,96419.19
2023-01-09T19:37:16.291Z,96408.69
2023-01-09T19:39:48.111Z,96397.66
2023-01-09T19:42:21.653Z,96386.91
2023-01-09T19:44:53.441Z,96388.88
2023-01-09T19:47:24.243Z,96381.13
2023-01-09T19:49:55.648Z,96384.63
2023-01-09T19:52:27.594Z,96396.50
2023-01-09T19:54:58.470Z,96402.44
2023-01-09T19:57:34.628Z,96402.81
2023-01-09T20:00:05.717Z,96390.63
2023-01-09T20:02:44.057Z,96392.44
2023-01-09T20:05:16.208Z,96387.63
2023-01-09T20:07:48.464Z,96417.19
2023-01-09T20:10:21.128Z,96411.94
2023-01-09T20:12:55.101Z,96394.28
2023-01-09T20:15:25.617Z,96391.81
2023-01-09T20:17:57.365Z,96376.47
2023-01-09T20:20:29.599Z,96366.72
2023-01-09T20:23:01.485Z,96361.28
2023-01-09T20:25:32.422Z,96373.66
2023-01-09T20:28:05.860Z,96385.22
2023-01-09T20:30:37.874Z,96402.41
2023-01-09T20:33:08.993Z,96417.13
2023-01-09T20:35:40.122Z,96428.50
2023-01-09T20:38:11.363Z,96411.81
2023-01-09T20:40:44.186Z,96400.56
2023-01-09T20:43:17.478Z,96398.63
2023-01-09T20:45:48.051Z,96380.09
2023-01-09T20:48:19.318Z,96387.69
2023-01-09T20:50:49.878Z,96394.97
2023-01-09T20:53:20.715Z,96392.00
2023-01-09T20:55:51.269Z,96385.22
2023-01-09T20:58:24.648Z,96382.75
2023-01-09T21:00:55.220Z,96383.41
2023-01-09T21:03:26.272Z,96381.75
2023-01-09T21:05:57.729Z,96374.66
2023-01-09T21:08:29.174Z,96365.25
2023-01-09T21:11:00.357Z,96362.59
2023-01-09T21:13:34.502Z,96364.25
2023-01-09T21:16:07.688Z,96369.84
2023-01-09T21:18:39.797Z,96362.75
2023-01-09T21:21:14.176Z,96369.03
2023-01-09T21:23:48.604Z,96344.09
2023-01-09T21:26:22.473Z,96357.13
2023-01-09T21:28:57.051Z,96350.34
2023-01-09T21:31:33.671Z,96355.66
2023-01-09T21:34:06.706Z,96346.09
2023-01-09T21:36:38.368Z,96348.31
2023-01-09T21:39:09.105Z,96339.28
2023-01-09T21:42:06.867Z,96341.44
2023-01-09T21:44:52.270Z,96348.94
2023-01-09T21:47:23.135Z,96343.78
2023-01-09T21:49:53.769Z,96331.53
2023-01-09T21:52:25.813Z,96338.88
2023-01-09T21:54:58.001Z,96331.19
2023-01-09T21:57:28.586Z,96320.00
2023-01-09T22:00:01.926Z,96316.84
2023-01-09T22:02:42.243Z,96321.75
2023-01-09T22:05:13.022Z,96306.34
2023-01-09T22:07:43.737Z,96313.88
2023-01-09T22:10:15.478Z,96299.56
2023-01-09T22:13:06.605Z,96309.38
2023-01-09T22:15:41.484Z,96296.84
2023-01-09T22:18:12.003Z,96292.28
2023-01-09T22:20:42.737Z,96286.19
2023-01-09T22:23:13.253Z,96278.47
2023-01-09T22:25:44.760Z,96266.28
2023-01-09T22:28:15.357Z,96274.00
2023-01-09T22:30:48.647Z,96278.75
2023-01-09T22:33:19.293Z,96269.84
2023-01-09T22:35:53.890Z,96274.56
2023-01-09T22:38:24.356Z,96269.97
2023-01-09T22:40:54.850Z,96275.59
2023-01-09T22:43:25.767Z,96272.28
2023-01-09T22:46:02.046Z,96262.41
2023-01-09T22:48:34.748Z,96261.41
2023-01-09T22:51:06.422Z,96271.41
2023-01-09T22:53:37.641Z,96261.38
2023-01-09T22:56:11.229Z,96262.88
2023-01-09T22:58:42.271Z,96264.34
2023-01-09T23:01:16.329Z,96264.50
2023-01-09T23:03:46.933Z,96261.19
2023-01-09T23:06:19.728Z,96279.16
2023-01-09T23:08:51.229Z,96278.19
2023-01-09T23:11:44.284Z,96284.88
2023-01-09T23:14:15.891Z,96290.44
2023-01-09T23:16:49.232Z,96282.31
2023-01-09T23:19:20.054Z,96285.97
2023-01-09T23:21:50.797Z,96291.63
2023-01-09T23:24:22.833Z,96277.94
2023-01-09T23:26:53.294Z,96272.31
2023-01-09T23:29:24.218Z,96272.22
2023-01-09T23:31:58.644Z,96274.78
2023-01-09T23:34:29.235Z,96252.84
2023-01-09T23:36:59.729Z,96256.91
2023-01-09T23:39:30.380Z,96258.72
2023-01-09T23:42:13.130Z,96247.31
2023-01-09T23:44:43.540Z,96251.53
2023-01-09T23:47:16.671Z,96245.34
2023-01-09T23:49:48.132Z,96242.09
2023-01-09T23:52:18.752Z,96252.91
2023-01-09T23:54:49.405Z,96258.56
2023-01-09T23:57:19.870Z,96251.34
2023-01-09T23:59:50.440Z,96259.69
